sensor_id;sensor_type;location;lat;lon;timestamp;temperature;humidity
39019;DHT22;24786;51.984;5.872;2024-01-10T00:02:00;-3.10;93.50
39019;DHT22;24786;51.984;5.872;2024-01-10T00:04:25;-3.10;93.60
39019;DHT22;24786;51.984;5.872;2024-01-10T00:06:51;-3.10;93.60
39019;DHT22;24786;51.984;5.872;2024-01-10T00:09:17;-3.10;93.70
39019;DHT22;24786;51.984;5.872;2024-01-10T00:11:42;-3.10;93.70
39019;DHT22;24786;51.984;5.872;2024-01-10T00:14:09;-3.20;93.80
39019;DHT22;24786;51.984;5.872;2024-01-10T00:16:34;-3.10;93.90
39019;DHT22;24786;51.984;5.872;2024-01-10T00:19:00;-3.20;93.90
39019;DHT22;24786;51.984;5.872;2024-01-10T00:21:26;-3.20;94.10
39019;DHT22;24786;51.984;5.872;2024-01-10T00:23:51;-3.20;94.10
39019;DHT22;24786;51.984;5.872;2024-01-10T00:26:17;-3.20;94.30
39019;DHT22;24786;51.984;5.872;2024-01-10T00:28:42;-3.20;94.30
39019;DHT22;24786;51.984;5.872;2024-01-10T00:31:10;-3.20;94.40
39019;DHT22;24786;51.984;5.872;2024-01-10T00:33:35;-3.30;94.40
39019;DHT22;24786;51.984;5.872;2024-01-10T00:36:01;-3.30;94.50
39019;DHT22;24786;51.984;5.872;2024-01-10T00:38:28;-3.30;94.50
39019;DHT22;24786;51.984;5.872;2024-01-10T00:40:53;-3.30;94.60
39019;DHT22;24786;51.984;5.872;2024-01-10T00:43:19;-3.30;94.70
39019;DHT22;24786;51.984;5.872;2024-01-10T00:45:44;-3.30;94.80
39019;DHT22;24786;51.984;5.872;2024-01-10T00:48:10;-3.30;94.80
39019;DHT22;24786;51.984;5.872;2024-01-10T00:50:42;-3.40;95.20
39019;DHT22;24786;51.984;5.872;2024-01-10T00:53:09;-3.30;95.00
39019;DHT22;24786;51.984;5.872;2024-01-10T00:55:35;-3.40;95.00
39019;DHT22;24786;51.984;5.872;2024-01-10T00:58:00;-3.40;95.10
39019;DHT22;24786;51.984;5.872;2024-01-10T01:00:26;-3.40;95.20
39019;DHT22;24786;51.984;5.872;2024-01-10T01:02:51;-3.40;95.30
39019;DHT22;24786;51.984;5.872;2024-01-10T01:05:17;-3.50;95.30
39019;DHT22;24786;51.984;5.872;2024-01-10T01:07:42;-3.50;95.40
39019;DHT22;24786;51.984;5.872;2024-01-10T01:10:08;-3.50;95.50
39019;DHT22;24786;51.984;5.872;2024-01-10T01:12:37;-3.60;95.60
39019;DHT22;24786;51.984;5.872;2024-01-10T01:15:03;-3.60;95.70
39019;DHT22;24786;51.984;5.872;2024-01-10T01:17:28;-3.70;95.70
39019;DHT22;24786;51.984;5.872;2024-01-10T01:19:54;-3.70;95.80
39019;DHT22;24786;51.984;5.872;2024-01-10T01:22:19;-3.70;95.90
39019;DHT22;24786;51.984;5.872;2024-01-10T01:24:45;-3.70;95.90
39019;DHT22;24786;51.984;5.872;2024-01-10T01:27:10;-3.70;96.00
39019;DHT22;24786;51.984;5.872;2024-01-10T01:29:36;-3.80;96.10
39019;DHT22;24786;51.984;5.872;2024-01-10T01:32:01;-3.70;96.20
39019;DHT22;24786;51.984;5.872;2024-01-10T01:34:27;-3.70;96.30
39019;DHT22;24786;51.984;5.872;2024-01-10T01:36:52;-3.70;96.30
39019;DHT22;24786;51.984;5.872;2024-01-10T01:39:18;-3.70;96.40
39019;DHT22;24786;51.984;5.872;2024-01-10T01:41:44;-3.70;96.40
39019;DHT22;24786;51.984;5.872;2024-01-10T01:44:09;-3.80;96.50
39019;DHT22;24786;51.984;5.872;2024-01-10T01:46:35;-3.80;96.50
39019;DHT22;24786;51.984;5.872;2024-01-10T01:49:00;-3.80;96.70
39019;DHT22;24786;51.984;5.872;2024-01-10T01:51:26;-3.90;96.80
39019;DHT22;24786;51.984;5.872;2024-01-10T01:53:53;-3.90;96.70
39019;DHT22;24786;51.984;5.872;2024-01-10T01:56:18;-3.90;96.80
39019;DHT22;24786;51.984;5.872;2024-01-10T01:58:44;-3.90;96.90
39019;DHT22;24786;51.984;5.872;2024-01-10T02:01:11;-3.90;97.00
39019;DHT22;24786;51.984;5.872;2024-01-10T02:03:40;-3.80;97.00
39019;DHT22;24786;51.984;5.872;2024-01-10T02:06:05;-3.80;97.00
39019;DHT22;24786;51.984;5.872;2024-01-10T02:08:34;-3.80;97.00
39019;DHT22;24786;51.984;5.872;2024-01-10T02:11:03;-3.80;97.10
39019;DHT22;24786;51.984;5.872;2024-01-10T02:13:29;-3.80;97.10
39019;DHT22;24786;51.984;5.872;2024-01-10T02:15:56;-3.80;97.10
39019;DHT22;24786;51.984;5.872;2024-01-10T02:18:22;-3.90;97.10
39019;DHT22;24786;51.984;5.872;2024-01-10T02:20:47;-3.90;97.10
39019;DHT22;24786;51.984;5.872;2024-01-10T02:23:13;-3.90;97.20
39019;DHT22;24786;51.984;5.872;2024-01-10T02:25:39;-3.90;97.30
39019;DHT22;24786;51.984;5.872;2024-01-10T02:28:05;-3.80;97.30
39019;DHT22;24786;51.984;5.872;2024-01-10T02:30:30;-3.90;97.30
39019;DHT22;24786;51.984;5.872;2024-01-10T02:32:56;-3.80;97.40
39019;DHT22;24786;51.984;5.872;2024-01-10T02:35:21;-3.90;97.40
39019;DHT22;24786;51.984;5.872;2024-01-10T02:37:47;-3.90;97.50
39019;DHT22;24786;51.984;5.872;2024-01-10T02:40:15;-3.90;97.60
39019;DHT22;24786;51.984;5.872;2024-01-10T02:42:41;-3.90;97.70
39019;DHT22;24786;51.984;5.872;2024-01-10T02:45:06;-3.90;97.70
39019;DHT22;24786;51.984;5.872;2024-01-10T02:47:32;-3.90;97.80
39019;DHT22;24786;51.984;5.872;2024-01-10T02:49:57;-3.90;97.90
39019;DHT22;24786;51.984;5.872;2024-01-10T02:52:23;-3.90;97.90
39019;DHT22;24786;51.984;5.872;2024-01-10T02:54:48;-4.00;97.90
39019;DHT22;24786;51.984;5.872;2024-01-10T02:57:14;-4.00;97.90
39019;DHT22;24786;51.984;5.872;2024-01-10T02:59:39;-4.00;98.00
39019;DHT22;24786;51.984;5.872;2024-01-10T03:02:05;-4.00;98.00
39019;DHT22;24786;51.984;5.872;2024-01-10T03:04:33;-4.00;98.00
39019;DHT22;24786;51.984;5.872;2024-01-10T03:06:58;-4.00;98.10
39019;DHT22;24786;51.984;5.872;2024-01-10T03:09:24;-4.10;98.30
39019;DHT22;24786;51.984;5.872;2024-01-10T03:11:49;-4.00;98.30
39019;DHT22;24786;51.984;5.872;2024-01-10T03:14:15;-4.00;98.30
39019;DHT22;24786;51.984;5.872;2024-01-10T03:16:40;-4.00;98.30
39019;DHT22;24786;51.984;5.872;2024-01-10T03:19:08;-4.00;98.40
39019;DHT22;24786;51.984;5.872;2024-01-10T03:21:34;-4.10;98.40
39019;DHT22;24786;51.984;5.872;2024-01-10T03:24:00;-4.10;98.50
39019;DHT22;24786;51.984;5.872;2024-01-10T03:26:26;-4.10;98.50
39019;DHT22;24786;51.984;5.872;2024-01-10T03:28:51;-4.10;98.50
39019;DHT22;24786;51.984;5.872;2024-01-10T03:31:17;-4.10;98.60
39019;DHT22;24786;51.984;5.872;2024-01-10T03:33:43;-4.20;98.60
39019;DHT22;24786;51.984;5.872;2024-01-10T03:36:10;-4.10;98.60
39019;DHT22;24786;51.984;5.872;2024-01-10T03:38:36;-4.10;98.70
39019;DHT22;24786;51.984;5.872;2024-01-10T03:41:01;-4.20;98.80
39019;DHT22;24786;51.984;5.872;2024-01-10T03:43:27;-4.10;98.80
39019;DHT22;24786;51.984;5.872;2024-01-10T03:45:52;-4.20;98.80
39019;DHT22;24786;51.984;5.872;2024-01-10T03:48:18;-4.10;98.90
39019;DHT22;24786;51.984;5.872;2024-01-10T03:50:46;-4.20;98.90
39019;DHT22;24786;51.984;5.872;2024-01-10T03:53:11;-4.20;99.00
39019;DHT22;24786;51.984;5.872;2024-01-10T03:55:37;-4.20;99.00
39019;DHT22;24786;51.984;5.872;2024-01-10T03:58:02;-4.20;99.10
39019;DHT22;24786;51.984;5.872;2024-01-10T04:00:28;-4.20;99.10
39019;DHT22;24786;51.984;5.872;2024-01-10T04:02:53;-4.20;99.20
39019;DHT22;24786;51.984;5.872;2024-01-10T04:05:19;-4.30;99.20
39019;DHT22;24786;51.984;5.872;2024-01-10T04:07:45;-4.30;99.20
39019;DHT22;24786;51.984;5.872;2024-01-10T04:10:11;-4.30;99.30
39019;DHT22;24786;51.984;5.872;2024-01-10T04:12:45;-4.40;99.30
39019;DHT22;24786;51.984;5.872;2024-01-10T04:15:11;-4.30;99.60
39019;DHT22;24786;51.984;5.872;2024-01-10T04:17:36;-4.40;99.50
39019;DHT22;24786;51.984;5.872;2024-01-10T04:20:02;-4.30;99.70
39019;DHT22;24786;51.984;5.872;2024-01-10T04:22:28;-4.40;99.60
39019;DHT22;24786;51.984;5.872;2024-01-10T04:24:55;-4.40;99.60
39019;DHT22;24786;51.984;5.872;2024-01-10T04:27:24;-4.30;99.70
39019;DHT22;24786;51.984;5.872;2024-01-10T04:29:49;-4.40;99.70
39019;DHT22;24786;51.984;5.872;2024-01-10T04:32:15;-4.40;99.80
39019;DHT22;24786;51.984;5.872;2024-01-10T04:34:40;-4.40;99.90
39019;DHT22;24786;51.984;5.872;2024-01-10T04:37:07;-4.50;99.90
39019;DHT22;24786;51.984;5.872;2024-01-10T04:39:33;-4.50;99.90
39019;DHT22;24786;51.984;5.872;2024-01-10T04:41:59;-4.60;99.90
39019;DHT22;24786;51.984;5.872;2024-01-10T04:44:24;-4.60;99.90
39019;DHT22;24786;51.984;5.872;2024-01-10T04:46:53;-4.50;99.90
39019;DHT22;24786;51.984;5.872;2024-01-10T04:49:21;-4.60;99.90
39019;DHT22;24786;51.984;5.872;2024-01-10T04:51:47;-4.60;99.90
39019;DHT22;24786;51.984;5.872;2024-01-10T04:54:13;-4.60;99.90
39019;DHT22;24786;51.984;5.872;2024-01-10T04:56:38;-4.70;99.90
39019;DHT22;24786;51.984;5.872;2024-01-10T04:59:04;-4.60;99.90
39019;DHT22;24786;51.984;5.872;2024-01-10T05:01:30;-4.70;99.90
39019;DHT22;24786;51.984;5.872;2024-01-10T05:03:55;-4.60;99.90
39019;DHT22;24786;51.984;5.872;2024-01-10T05:06:21;-4.60;99.90
39019;DHT22;24786;51.984;5.872;2024-01-10T05:08:46;-4.60;99.90
39019;DHT22;24786;51.984;5.872;2024-01-10T05:11:12;-4.60;99.90
39019;DHT22;24786;51.984;5.872;2024-01-10T05:13:39;-4.60;99.90
39019;DHT22;24786;51.984;5.872;2024-01-10T05:16:05;-4.70;99.90
39019;DHT22;24786;51.984;5.872;2024-01-10T05:18:30;-4.60;99.90
39019;DHT22;24786;51.984;5.872;2024-01-10T05:20:59;-4.60;99.90
39019;DHT22;24786;51.984;5.872;2024-01-10T05:23:25;-4.60;99.90
39019;DHT22;24786;51.984;5.872;2024-01-10T05:25:51;-4.60;99.90
39019;DHT22;24786;51.984;5.872;2024-01-10T05:28:16;-4.60;99.90
39019;DHT22;24786;51.984;5.872;2024-01-10T05:30:43;-4.60;99.90
39019;DHT22;24786;51.984;5.872;2024-01-10T05:33:09;-4.60;99.90
39019;DHT22;24786;51.984;5.872;2024-01-10T05:35:34;-4.60;99.90
39019;DHT22;24786;51.984;5.872;2024-01-10T05:38:01;-4.60;99.90
39019;DHT22;24786;51.984;5.872;2024-01-10T05:40:30;-4.60;99.90
39019;DHT22;24786;51.984;5.872;2024-01-10T05:42:57;-4.50;99.90
39019;DHT22;24786;51.984;5.872;2024-01-10T05:45:23;-4.60;99.90
39019;DHT22;24786;51.984;5.872;2024-01-10T05:47:48;-4.50;99.90
39019;DHT22;24786;51.984;5.872;2024-01-10T05:50:14;-4.60;99.90
39019;DHT22;24786;51.984;5.872;2024-01-10T05:52:39;-4.60;99.90
39019;DHT22;24786;51.984;5.872;2024-01-10T05:55:05;-4.60;99.90
39019;DHT22;24786;51.984;5.872;2024-01-10T05:57:34;-4.60;99.90
39019;DHT22;24786;51.984;5.872;2024-01-10T05:59:59;-4.50;99.90
39019;DHT22;24786;51.984;5.872;2024-01-10T06:02:25;-4.50;99.90
39019;DHT22;24786;51.984;5.872;2024-01-10T06:04:51;-4.50;99.90
39019;DHT22;24786;51.984;5.872;2024-01-10T06:07:16;-4.50;99.90
39019;DHT22;24786;51.984;5.872;2024-01-10T06:09:42;-4.50;99.90
39019;DHT22;24786;51.984;5.872;2024-01-10T06:12:09;-4.50;99.90
39019;DHT22;24786;51.984;5.872;2024-01-10T06:14:34;-4.50;99.90
39019;DHT22;24786;51.984;5.872;2024-01-10T06:16:59;-4.50;99.90
39019;DHT22;24786;51.984;5.872;2024-01-10T06:19:26;-4.50;99.90
39019;DHT22;24786;51.984;5.872;2024-01-10T06:21:51;-4.50;99.90
39019;DHT22;24786;51.984;5.872;2024-01-10T06:24:17;-4.50;99.90
39019;DHT22;24786;51.984;5.872;2024-01-10T06:26:43;-4.50;99.90
39019;DHT22;24786;51.984;5.872;2024-01-10T06:29:08;-4.50;99.90
39019;DHT22;24786;51.984;5.872;2024-01-10T06:31:34;-4.50;99.90
39019;DHT22;24786;51.984;5.872;2024-01-10T06:33:59;-4.50;99.90
39019;DHT22;24786;51.984;5.872;2024-01-10T06:36:25;-4.60;99.90
39019;DHT22;24786;51.984;5.872;2024-01-10T06:38:50;-4.60;99.90
39019;DHT22;24786;51.984;5.872;2024-01-10T06:41:16;-4.60;99.90
39019;DHT22;24786;51.984;5.872;2024-01-10T06:43:41;-4.50;99.90
39019;DHT22;24786;51.984;5.872;2024-01-10T06:46:07;-4.50;99.90
39019;DHT22;24786;51.984;5.872;2024-01-10T06:48:32;-4.50;99.90
39019;DHT22;24786;51.984;5.872;2024-01-10T06:50:58;-4.50;99.90
39019;DHT22;24786;51.984;5.872;2024-01-10T06:53:24;-4.50;99.90
39019;DHT22;24786;51.984;5.872;2024-01-10T06:55:49;-4.50;99.90
39019;DHT22;24786;51.984;5.872;2024-01-10T06:58:15;-4.50;99.90
39019;DHT22;24786;51.984;5.872;2024-01-10T07:00:41;-4.60;99.90
39019;DHT22;24786;51.984;5.872;2024-01-10T07:03:06;-4.50;99.90
39019;DHT22;24786;51.984;5.872;2024-01-10T07:05:32;-4.50;99.90
39019;DHT22;24786;51.984;5.872;2024-01-10T07:07:58;-4.50;99.90
39019;DHT22;24786;51.984;5.872;2024-01-10T07:10:24;-4.50;99.90
39019;DHT22;24786;51.984;5.872;2024-01-10T07:12:53;-4.50;99.90
39019;DHT22;24786;51.984;5.872;2024-01-10T07:15:19;-4.50;99.90
39019;DHT22;24786;51.984;5.872;2024-01-10T07:17:44;-4.50;99.90
39019;DHT22;24786;51.984;5.872;2024-01-10T07:20:13;-4.50;99.90
39019;DHT22;24786;51.984;5.872;2024-01-10T07:22:38;-4.50;99.90
39019;DHT22;24786;51.984;5.872;2024-01-10T07:25:09;-4.50;99.90
39019;DHT22;24786;51.984;5.872;2024-01-10T07:27:35;-4.60;99.90
39019;DHT22;24786;51.984;5.872;2024-01-10T07:30:04;-4.60;99.90
39019;DHT22;24786;51.984;5.872;2024-01-10T07:32:30;-4.60;99.90
39019;DHT22;24786;51.984;5.872;2024-01-10T07:34:58;-4.60;99.90
39019;DHT22;24786;51.984;5.872;2024-01-10T07:37:39;-4.60;99.90
39019;DHT22;24786;51.984;5.872;2024-01-10T07:40:22;-4.70;99.90
39019;DHT22;24786;51.984;5.872;2024-01-10T07:42:50;-4.60;99.90
39019;DHT22;24786;51.984;5.872;2024-01-10T07:45:22;-4.60;99.90
39019;DHT22;24786;51.984;5.872;2024-01-10T07:48:03;-4.70;99.90
39019;DHT22;24786;51.984;5.872;2024-01-10T07:50:38;-4.60;99.90
39019;DHT22;24786;51.984;5.872;2024-01-10T07:53:15;-4.60;99.90
39019;DHT22;24786;51.984;5.872;2024-01-10T07:55:43;-4.60;99.90
39019;DHT22;24786;51.984;5.872;2024-01-10T08:00:59;-4.50;99.90
39019;DHT22;24786;51.984;5.872;2024-01-10T08:06:09;-4.50;99.90
39019;DHT22;24786;51.984;5.872;2024-01-10T08:08:35;-4.50;99.90
39019;DHT22;24786;51.984;5.872;2024-01-10T08:11:04;-4.40;99.90
39019;DHT22;24786;51.984;5.872;2024-01-10T08:13:33;-4.40;99.90
39019;DHT22;24786;51.984;5.872;2024-01-10T08:16:06;-4.30;99.90
39019;DHT22;24786;51.984;5.872;2024-01-10T08:18:39;-4.20;99.90
39019;DHT22;24786;51.984;5.872;2024-01-10T08:21:05;-4.20;99.90
39019;DHT22;24786;51.984;5.872;2024-01-10T08:23:30;-4.20;99.90
39019;DHT22;24786;51.984;5.872;2024-01-10T08:25:58;-4.20;99.90
39019;DHT22;24786;51.984;5.872;2024-01-10T08:28:30;-4.10;99.90
39019;DHT22;24786;51.984;5.872;2024-01-10T08:30:56;-4.00;99.90
39019;DHT22;24786;51.984;5.872;2024-01-10T08:33:21;-4.00;99.90
39019;DHT22;24786;51.984;5.872;2024-01-10T08:35:49;-3.90;99.90
39019;DHT22;24786;51.984;5.872;2024-01-10T08:38:15;-4.00;99.90
39019;DHT22;24786;51.984;5.872;2024-01-10T08:40:40;-3.90;99.70
39019;DHT22;24786;51.984;5.872;2024-01-10T08:43:06;-3.80;99.50
39019;DHT22;24786;51.984;5.872;2024-01-10T08:45:31;-3.80;99.60
39019;DHT22;24786;51.984;5.872;2024-01-10T08:47:57;-3.80;99.00
39019;DHT22;24786;51.984;5.872;2024-01-10T08:50:23;-3.70;98.90
39019;DHT22;24786;51.984;5.872;2024-01-10T08:52:49;-3.70;98.80
39019;DHT22;24786;51.984;5.872;2024-01-10T08:55:14;-3.70;98.80
39019;DHT22;24786;51.984;5.872;2024-01-10T08:57:42;-3.50;98.90
39019;DHT22;24786;51.984;5.872;2024-01-10T09:00:08;-3.60;99.00
39019;DHT22;24786;51.984;5.872;2024-01-10T09:02:45;-3.60;98.50
39019;DHT22;24786;51.984;5.872;2024-01-10T09:05:11;-3.50;98.50
39019;DHT22;24786;51.984;5.872;2024-01-10T09:07:36;-3.40;98.60
39019;DHT22;24786;51.984;5.872;2024-01-10T09:10:03;-3.50;98.40
39019;DHT22;24786;51.984;5.872;2024-01-10T09:12:30;-3.40;98.10
39019;DHT22;24786;51.984;5.872;2024-01-10T09:14:56;-3.40;97.90
39019;DHT22;24786;51.984;5.872;2024-01-10T09:17:21;-3.30;98.30
39019;DHT22;24786;51.984;5.872;2024-01-10T09:19:47;-3.30;98.30
39019;DHT22;24786;51.984;5.872;2024-01-10T09:22:12;-3.30;98.40
39019;DHT22;24786;51.984;5.872;2024-01-10T09:24:39;-3.30;98.50
39019;DHT22;24786;51.984;5.872;2024-01-10T09:27:05;-3.20;98.60
39019;DHT22;24786;51.984;5.872;2024-01-10T09:29:31;-3.20;98.40
39019;DHT22;24786;51.984;5.872;2024-01-10T09:31:57;-3.10;98.40
39019;DHT22;24786;51.984;5.872;2024-01-10T09:34:29;-3.10;98.10
39019;DHT22;24786;51.984;5.872;2024-01-10T09:36:58;-3.10;98.30
39019;DHT22;24786;51.984;5.872;2024-01-10T09:39:24;-3.00;97.80
39019;DHT22;24786;51.984;5.872;2024-01-10T09:41:49;-2.90;97.80
39019;DHT22;24786;51.984;5.872;2024-01-10T09:44:19;-2.80;97.30
39019;DHT22;24786;51.984;5.872;2024-01-10T09:46:52;-2.80;97.20
39019;DHT22;24786;51.984;5.872;2024-01-10T09:49:18;-2.90;97.40
39019;DHT22;24786;51.984;5.872;2024-01-10T09:51:44;-2.70;97.20
39019;DHT22;24786;51.984;5.872;2024-01-10T09:54:12;-2.70;97.00
39019;DHT22;24786;51.984;5.872;2024-01-10T09:56:39;-2.60;96.70
39019;DHT22;24786;51.984;5.872;2024-01-10T09:59:06;-2.60;96.30
39019;DHT22;24786;51.984;5.872;2024-01-10T10:01:38;-2.50;96.20
39019;DHT22;24786;51.984;5.872;2024-01-10T10:04:07;-2.50;96.30
39019;DHT22;24786;51.984;5.872;2024-01-10T10:06:34;-2.40;96.20
39019;DHT22;24786;51.984;5.872;2024-01-10T10:09:00;-2.40;96.40
39019;DHT22;24786;51.984;5.872;2024-01-10T10:11:25;-2.40;96.20
39019;DHT22;24786;51.984;5.872;2024-01-10T10:13:51;-2.30;95.50
39019;DHT22;24786;51.984;5.872;2024-01-10T10:16:22;-2.20;95.90
39019;DHT22;24786;51.984;5.872;2024-01-10T10:18:48;-2.20;95.90
39019;DHT22;24786;51.984;5.872;2024-01-10T10:21:15;-2.20;96.10
39019;DHT22;24786;51.984;5.872;2024-01-10T10:23:41;-2.10;96.00
39019;DHT22;24786;51.984;5.872;2024-01-10T10:26:16;-2.00;96.00
39019;DHT22;24786;51.984;5.872;2024-01-10T10:28:51;-1.90;95.40
39019;DHT22;24786;51.984;5.872;2024-01-10T10:31:32;-1.90;95.40
39019;DHT22;24786;51.984;5.872;2024-01-10T10:34:04;-1.90;95.10
39019;DHT22;24786;51.984;5.872;2024-01-10T10:36:35;-1.80;95.10
39019;DHT22;24786;51.984;5.872;2024-01-10T10:39:01;-1.70;95.40
39019;DHT22;24786;51.984;5.872;2024-01-10T10:41:43;-1.90;95.60
39019;DHT22;24786;51.984;5.872;2024-01-10T10:44:11;-1.60;95.30
39019;DHT22;24786;51.984;5.872;2024-01-10T10:46:38;-1.60;95.00
39019;DHT22;24786;51.984;5.872;2024-01-10T10:49:06;-1.60;94.90
39019;DHT22;24786;51.984;5.872;2024-01-10T10:51:41;-1.50;95.20
39019;DHT22;24786;51.984;5.872;2024-01-10T10:54:06;-1.50;94.80
39019;DHT22;24786;51.984;5.872;2024-01-10T10:56:33;-1.40;94.70
39019;DHT22;24786;51.984;5.872;2024-01-10T10:59:02;-1.30;94.50
39019;DHT22;24786;51.984;5.872;2024-01-10T11:01:28;-1.30;94.60
39019;DHT22;24786;51.984;5.872;2024-01-10T11:03:54;-1.30;94.90
39019;DHT22;24786;51.984;5.872;2024-01-10T11:06:20;-1.20;94.20
39019;DHT22;24786;51.984;5.872;2024-01-10T11:14:09;-1.00;94.10
39019;DHT22;24786;51.984;5.872;2024-01-10T11:19:14;-1.00;94.00
39019;DHT22;24786;51.984;5.872;2024-01-10T11:24:11;-0.90;93.30
39019;DHT22;24786;51.984;5.872;2024-01-10T11:26:37;-0.80;93.20
39019;DHT22;24786;51.984;5.872;2024-01-10T11:29:03;-0.80;93.40
39019;DHT22;24786;51.984;5.872;2024-01-10T11:31:30;-0.70;93.30
39019;DHT22;24786;51.984;5.872;2024-01-10T11:33:56;-0.60;92.10
39019;DHT22;24786;51.984;5.872;2024-01-10T11:42:00;-0.40;91.80
39019;DHT22;24786;51.984;5.872;2024-01-10T11:44:29;-0.30;92.00
39019;DHT22;24786;51.984;5.872;2024-01-10T11:47:10;-0.30;92.00
39019;DHT22;24786;51.984;5.872;2024-01-10T11:49:36;-0.20;92.40
39019;DHT22;24786;51.984;5.872;2024-01-10T11:52:13;-0.10;91.90
39019;DHT22;24786;51.984;5.872;2024-01-10T11:54:43;-0.10;91.00
39019;DHT22;24786;51.984;5.872;2024-01-10T11:59:39;0.00;90.90
39019;DHT22;24786;51.984;5.872;2024-01-10T12:02:05;0.00;91.40
39019;DHT22;24786;51.984;5.872;2024-01-10T12:04:31;0.10;91.10
39019;DHT22;24786;51.984;5.872;2024-01-10T12:06:57;0.10;90.30
39019;DHT22;24786;51.984;5.872;2024-01-10T12:09:23;0.20;89.80
39019;DHT22;24786;51.984;5.872;2024-01-10T12:11:50;0.20;89.60
39019;DHT22;24786;51.984;5.872;2024-01-10T12:14:15;0.30;89.20
39019;DHT22;24786;51.984;5.872;2024-01-10T12:16:41;0.20;89.10
39019;DHT22;24786;51.984;5.872;2024-01-10T12:19:07;0.20;89.80
39019;DHT22;24786;51.984;5.872;2024-01-10T12:21:32;0.30;89.80
39019;DHT22;24786;51.984;5.872;2024-01-10T12:23:58;0.30;90.10
39019;DHT22;24786;51.984;5.872;2024-01-10T12:26:23;0.40;90.50
39019;DHT22;24786;51.984;5.872;2024-01-10T12:28:55;0.40;90.60
39019;DHT22;24786;51.984;5.872;2024-01-10T12:31:21;0.50;90.10
39019;DHT22;24786;51.984;5.872;2024-01-10T12:33:51;0.50;89.30
39019;DHT22;24786;51.984;5.872;2024-01-10T12:36:17;0.50;88.90
39019;DHT22;24786;51.984;5.872;2024-01-10T12:38:45;0.50;90.00
39019;DHT22;24786;51.984;5.872;2024-01-10T12:41:10;0.50;90.00
39019;DHT22;24786;51.984;5.872;2024-01-10T12:43:36;0.50;89.80
39019;DHT22;24786;51.984;5.872;2024-01-10T12:46:05;0.60;90.10
39019;DHT22;24786;51.984;5.872;2024-01-10T12:48:31;0.60;90.10
39019;DHT22;24786;51.984;5.872;2024-01-10T12:50:58;0.60;90.20
39019;DHT22;24786;51.984;5.872;2024-01-10T12:53:27;0.60;90.00
39019;DHT22;24786;51.984;5.872;2024-01-10T12:55:54;0.60;90.40
39019;DHT22;24786;51.984;5.872;2024-01-10T12:58:20;0.60;90.10
39019;DHT22;24786;51.984;5.872;2024-01-10T13:00:45;0.70;90.40
39019;DHT22;24786;51.984;5.872;2024-01-10T13:03:11;0.70;90.20
39019;DHT22;24786;51.984;5.872;2024-01-10T13:05:36;0.70;90.30
39019;DHT22;24786;51.984;5.872;2024-01-10T13:08:02;0.70;89.20
39019;DHT22;24786;51.984;5.872;2024-01-10T13:10:30;0.70;89.80
39019;DHT22;24786;51.984;5.872;2024-01-10T13:12:55;0.70;90.00
39019;DHT22;24786;51.984;5.872;2024-01-10T13:15:21;0.70;90.30
39019;DHT22;24786;51.984;5.872;2024-01-10T13:17:46;0.80;90.30
39019;DHT22;24786;51.984;5.872;2024-01-10T13:20:12;0.70;90.00
39019;DHT22;24786;51.984;5.872;2024-01-10T13:22:37;0.80;90.10
39019;DHT22;24786;51.984;5.872;2024-01-10T13:25:06;0.80;90.30
39019;DHT22;24786;51.984;5.872;2024-01-10T13:27:40;0.70;89.30
39019;DHT22;24786;51.984;5.872;2024-01-10T13:30:06;0.80;89.70
39019;DHT22;24786;51.984;5.872;2024-01-10T13:32:32;0.70;90.10
39019;DHT22;24786;51.984;5.872;2024-01-10T13:34:57;0.70;90.30
39019;DHT22;24786;51.984;5.872;2024-01-10T13:37:23;0.70;89.90
39019;DHT22;24786;51.984;5.872;2024-01-10T13:39:48;0.70;90.00
39019;DHT22;24786;51.984;5.872;2024-01-10T13:42:14;0.60;90.00
39019;DHT22;24786;51.984;5.872;2024-01-10T13:44:39;0.70;90.40
39019;DHT22;24786;51.984;5.872;2024-01-10T13:47:05;0.70;90.10
39019;DHT22;24786;51.984;5.872;2024-01-10T13:49:31;0.60;90.20
39019;DHT22;24786;51.984;5.872;2024-01-10T13:51:57;0.60;90.30
39019;DHT22;24786;51.984;5.872;2024-01-10T13:54:22;0.60;90.20
39019;DHT22;24786;51.984;5.872;2024-01-10T13:56:48;0.60;90.60
39019;DHT22;24786;51.984;5.872;2024-01-10T13:59:13;0.60;90.30
39019;DHT22;24786;51.984;5.872;2024-01-10T14:01:39;0.60;90.60
39019;DHT22;24786;51.984;5.872;2024-01-10T14:04:05;0.60;90.60
39019;DHT22;24786;51.984;5.872;2024-01-10T14:06:30;0.60;90.70
39019;DHT22;24786;51.984;5.872;2024-01-10T14:08:56;0.60;90.90
39019;DHT22;24786;51.984;5.872;2024-01-10T14:11:23;0.60;90.70
39019;DHT22;24786;51.984;5.872;2024-01-10T14:13:49;0.50;90.60
39019;DHT22;24786;51.984;5.872;2024-01-10T14:16:15;0.50;90.70
39019;DHT22;24786;51.984;5.872;2024-01-10T14:18:40;0.50;91.00
39019;DHT22;24786;51.984;5.872;2024-01-10T14:21:06;0.50;91.00
39019;DHT22;24786;51.984;5.872;2024-01-10T14:23:32;0.50;91.10
39019;DHT22;24786;51.984;5.872;2024-01-10T14:25:58;0.50;91.20
39019;DHT22;24786;51.984;5.872;2024-01-10T14:28:23;0.50;91.00
39019;DHT22;24786;51.984;5.872;2024-01-10T14:30:49;0.50;91.00
39019;DHT22;24786;51.984;5.872;2024-01-10T14:33:29;0.50;91.30
39019;DHT22;24786;51.984;5.872;2024-01-10T14:35:55;0.50;91.30
39019;DHT22;24786;51.984;5.872;2024-01-10T14:38:20;0.40;91.30
39019;DHT22;24786;51.984;5.872;2024-01-10T14:40:56;0.50;91.60
39019;DHT22;24786;51.984;5.872;2024-01-10T14:43:22;0.50;91.70
39019;DHT22;24786;51.984;5.872;2024-01-10T14:45:47;0.40;91.70
39019;DHT22;24786;51.984;5.872;2024-01-10T14:48:13;0.40;91.40
39019;DHT22;24786;51.984;5.872;2024-01-10T14:50:39;0.40;91.40
39019;DHT22;24786;51.984;5.872;2024-01-10T14:53:04;0.30;91.70
39019;DHT22;24786;51.984;5.872;2024-01-10T14:55:30;0.30;91.80
39019;DHT22;24786;51.984;5.872;2024-01-10T14:57:55;0.30;91.90
39019;DHT22;24786;51.984;5.872;2024-01-10T15:00:36;0.30;92.00
39019;DHT22;24786;51.984;5.872;2024-01-10T15:03:02;0.30;92.10
39019;DHT22;24786;51.984;5.872;2024-01-10T15:05:29;0.30;92.10
39019;DHT22;24786;51.984;5.872;2024-01-10T15:10:41;0.20;92.10
39019;DHT22;24786;51.984;5.872;2024-01-10T15:13:11;0.20;92.30
39019;DHT22;24786;51.984;5.872;2024-01-10T15:15:37;0.20;92.40
39019;DHT22;24786;51.984;5.872;2024-01-10T15:18:19;0.10;92.40
39019;DHT22;24786;51.984;5.872;2024-01-10T15:20:47;0.10;92.50
39019;DHT22;24786;51.984;5.872;2024-01-10T15:23:13;0.10;92.50
39019;DHT22;24786;51.984;5.872;2024-01-10T15:25:47;0.10;92.60
39019;DHT22;24786;51.984;5.872;2024-01-10T15:28:16;0.00;92.50
39019;DHT22;24786;51.984;5.872;2024-01-10T15:30:47;0.00;92.60
39019;DHT22;24786;51.984;5.872;2024-01-10T15:33:13;0.00;92.70
39019;DHT22;24786;51.984;5.872;2024-01-10T15:35:39;-0.10;92.80
39019;DHT22;24786;51.984;5.872;2024-01-10T15:38:07;-0.10;92.90
39019;DHT22;24786;51.984;5.872;2024-01-10T15:40:33;-0.10;93.00
39019;DHT22;24786;51.984;5.872;2024-01-10T15:42:58;-0.20;93.20
39019;DHT22;24786;51.984;5.872;2024-01-10T15:45:33;-0.20;93.20
39019;DHT22;24786;51.984;5.872;2024-01-10T15:47:59;-0.20;93.30
39019;DHT22;24786;51.984;5.872;2024-01-10T15:50:30;-0.30;93.40
39019;DHT22;24786;51.984;5.872;2024-01-10T15:52:56;-0.20;93.50
39019;DHT22;24786;51.984;5.872;2024-01-10T15:55:21;-0.20;93.50
39019;DHT22;24786;51.984;5.872;2024-01-10T15:58:05;-0.20;93.60
39019;DHT22;24786;51.984;5.872;2024-01-10T16:00:32;-0.30;93.70